sensor_id;sensor_type;location;lat;lon;timestamp;pressure;altitude;pressure_sealevel;temperature;humidity
692;BME280;70475;50.084;8.576;2024-02-23T00:02:06;98292.53;;;8.11;100.00
692;BME280;70475;50.084;8.576;2024-02-23T00:04:36;98309.94;;;8.07;100.00
692;BME280;70475;50.084;8.576;2024-02-23T00:07:10;98319.94;;;8.05;100.00
692;BME280;70475;50.084;8.576;2024-02-23T00:09:38;98322.50;;;8.12;100.00
692;BME280;70475;50.084;8.576;2024-02-23T00:12:06;98335.53;;;8.13;100.00
692;BME280;70475;50.084;8.576;2024-02-23T00:14:35;98319.72;;;8.07;100.00
692;BME280;70475;50.084;8.576;2024-02-23T00:17:03;98319.63;;;8.13;100.00
692;BME280;70475;50.084;8.576;2024-02-23T00:19:31;98328.72;;;8.06;100.00
692;BME280;70475;50.084;8.576;2024-02-23T00:21:59;98331.59;;;8.04;100.00
692;BME280;70475;50.084;8.576;2024-02-23T00:24:28;98343.00;;;8.05;100.00
692;BME280;70475;50.084;8.576;2024-02-23T00:26:56;98336.44;;;8.07;100.00
692;BME280;70475;50.084;8.576;2024-02-23T00:29:24;98355.66;;;8.03;100.00
692;BME280;70475;50.084;8.576;2024-02-23T00:31:51;98364.44;;;8.03;100.00
692;BME280;70475;50.084;8.576;2024-02-23T00:34:19;98372.00;;;8.00;100.00
692;BME280;70475;50.084;8.576;2024-02-23T00:36:46;98377.53;;;7.98;100.00
692;BME280;70475;50.084;8.576;2024-02-23T00:39:15;98380.63;;;7.95;100.00
692;BME280;70475;50.084;8.576;2024-02-23T00:41:43;98380.63;;;7.95;100.00
692;BME280;70475;50.084;8.576;2024-02-23T00:44:11;98387.53;;;7.96;100.00
692;BME280;70475;50.084;8.576;2024-02-23T00:46:39;98405.13;;;7.91;100.00
692;BME280;70475;50.084;8.576;2024-02-23T00:49:07;98412.31;;;7.90;100.00
692;BME280;70475;50.084;8.576;2024-02-23T00:51:34;98412.13;;;7.85;100.00
692;BME280;70475;50.084;8.576;2024-02-23T00:54:02;98413.31;;;7.89;100.00
692;BME280;70475;50.084;8.576;2024-02-23T00:56:29;98401.16;;;7.82;100.00
692;BME280;70475;50.084;8.576;2024-02-23T00:59:12;98412.59;;;7.82;100.00
692;BME280;70475;50.084;8.576;2024-02-23T01:01:39;98425.81;;;7.82;100.00
692;BME280;70475;50.084;8.576;2024-02-23T01:04:07;98421.13;;;7.84;100.00
692;BME280;70475;50.084;8.576;2024-02-23T01:06:34;98420.31;;;7.84;100.00
692;BME280;70475;50.084;8.576;2024-02-23T01:09:02;98420.38;;;7.77;100.00
692;BME280;70475;50.084;8.576;2024-02-23T01:11:32;98425.31;;;7.74;100.00
692;BME280;70475;50.084;8.576;2024-02-23T01:14:00;98430.84;;;7.72;100.00
692;BME280;70475;50.084;8.576;2024-02-23T01:16:29;98431.84;;;7.71;100.00
692;BME280;70475;50.084;8.576;2024-02-23T01:18:58;98430.81;;;7.54;100.00
692;BME280;70475;50.084;8.576;2024-02-23T01:21:26;98430.63;;;7.49;100.00
692;BME280;70475;50.084;8.576;2024-02-23T01:23:53;98441.44;;;7.48;100.00
692;BME280;70475;50.084;8.576;2024-02-23T01:26:22;98445.69;;;7.31;100.00
692;BME280;70475;50.084;8.576;2024-02-23T01:28:50;98462.88;;;7.22;100.00
692;BME280;70475;50.084;8.576;2024-02-23T01:31:17;98465.81;;;7.07;100.00
692;BME280;70475;50.084;8.576;2024-02-23T01:33:46;98471.31;;;7.12;100.00
692;BME280;70475;50.084;8.576;2024-02-23T01:36:16;98467.78;;;7.18;100.00
692;BME280;70475;50.084;8.576;2024-02-23T01:38:44;98473.66;;;7.20;100.00
692;BME280;70475;50.084;8.576;2024-02-23T01:41:11;98479.56;;;7.22;100.00
692;BME280;70475;50.084;8.576;2024-02-23T01:43:39;98486.31;;;7.18;100.00
692;BME280;70475;50.084;8.576;2024-02-23T01:46:07;98489.13;;;7.23;100.00
692;BME280;70475;50.084;8.576;2024-02-23T01:48:34;98499.78;;;7.17;100.00
692;BME280;70475;50.084;8.576;2024-02-23T01:51:03;98506.16;;;7.03;100.00
692;BME280;70475;50.084;8.576;2024-02-23T01:53:32;98515.78;;;6.91;100.00
692;BME280;70475;50.084;8.576;2024-02-23T01:55:59;98511.13;;;6.86;100.00
692;BME280;70475;50.084;8.576;2024-02-23T01:58:28;98528.75;;;6.68;100.00
692;BME280;70475;50.084;8.576;2024-02-23T02:00:56;98533.28;;;6.54;100.00
692;BME280;70475;50.084;8.576;2024-02-23T02:03:23;98543.25;;;6.52;100.00
692;BME280;70475;50.084;8.576;2024-02-23T02:05:52;98547.94;;;6.50;100.00
692;BME280;70475;50.084;8.576;2024-02-23T02:08:21;98552.41;;;6.56;100.00
692;BME280;70475;50.084;8.576;2024-02-23T02:10:50;98569.06;;;6.57;100.00
692;BME280;70475;50.084;8.576;2024-02-23T02:13:18;98562.56;;;6.53;100.00
692;BME280;70475;50.084;8.576;2024-02-23T02:15:48;98573.56;;;6.56;100.00
692;BME280;70475;50.084;8.576;2024-02-23T02:18:16;98578.28;;;6.41;100.00
692;BME280;70475;50.084;8.576;2024-02-23T02:20:51;98578.06;;;6.36;100.00
692;BME280;70475;50.084;8.576;2024-02-23T02:23:19;98573.22;;;6.26;100.00
692;BME280;70475;50.084;8.576;2024-02-23T02:25:53;98587.06;;;6.22;100.00
692;BME280;70475;50.084;8.576;2024-02-23T02:28:21;98581.78;;;6.22;100.00
692;BME280;70475;50.084;8.576;2024-02-23T02:30:49;98584.22;;;6.17;100.00
692;BME280;70475;50.084;8.576;2024-02-23T02:33:16;98590.13;;;6.12;100.00
692;BME280;70475;50.084;8.576;2024-02-23T02:35:44;98579.53;;;6.12;100.00
692;BME280;70475;50.084;8.576;2024-02-23T02:38:12;98585.88;;;5.98;100.00
692;BME280;70475;50.084;8.576;2024-02-23T02:40:39;98588.91;;;6.02;100.00
692;BME280;70475;50.084;8.576;2024-02-23T02:43:08;98588.91;;;6.15;100.00
692;BME280;70475;50.084;8.576;2024-02-23T02:45:36;98585.06;;;6.04;100.00
692;BME280;70475;50.084;8.576;2024-02-23T02:48:04;98593.59;;;6.00;100.00
692;BME280;70475;50.084;8.576;2024-02-23T02:50:32;98600.50;;;5.88;100.00
692;BME280;70475;50.084;8.576;2024-02-23T02:53:00;98606.41;;;5.96;100.00
692;BME280;70475;50.084;8.576;2024-02-23T02:55:28;98604.97;;;5.94;100.00
692;BME280;70475;50.084;8.576;2024-02-23T02:57:55;98609.44;;;6.00;100.00
692;BME280;70475;50.084;8.576;2024-02-23T03:00:24;98613.50;;;5.96;100.00
692;BME280;70475;50.084;8.576;2024-02-23T03:02:52;98610.69;;;5.91;100.00
692;BME280;70475;50.084;8.576;2024-02-23T03:05:19;98615.53;;;5.87;100.00
692;BME280;70475;50.084;8.576;2024-02-23T03:07:47;98617.75;;;5.77;100.00
692;BME280;70475;50.084;8.576;2024-02-23T03:10:15;98613.06;;;5.73;100.00
692;BME280;70475;50.084;8.576;2024-02-23T03:12:43;98619.97;;;5.61;100.00
692;BME280;70475;50.084;8.576;2024-02-23T03:15:10;98622.59;;;5.61;100.00
692;BME280;70475;50.084;8.576;2024-02-23T03:17:40;98628.09;;;5.59;100.00
692;BME280;70475;50.084;8.576;2024-02-23T03:20:08;98626.47;;;5.65;100.00
692;BME280;70475;50.084;8.576;2024-02-23T03:22:37;98630.13;;;5.77;100.00
692;BME280;70475;50.084;8.576;2024-02-23T03:25:05;98636.28;;;5.84;100.00
692;BME280;70475;50.084;8.576;2024-02-23T03:27:36;98635.88;;;5.87;100.00
692;BME280;70475;50.084;8.576;2024-02-23T03:30:05;98633.63;;;5.84;100.00
692;BME280;70475;50.084;8.576;2024-02-23T03:32:34;98639.28;;;5.81;100.00
692;BME280;70475;50.084;8.576;2024-02-23T03:35:06;98636.63;;;5.74;100.00
692;BME280;70475;50.084;8.576;2024-02-23T03:37:35;98633.78;;;5.69;100.00
692;BME280;70475;50.084;8.576;2024-02-23T03:40:03;98635.22;;;5.59;100.00
692;BME280;70475;50.084;8.576;2024-02-23T03:42:31;98637.44;;;5.55;100.00
692;BME280;70475;50.084;8.576;2024-02-23T03:44:59;98643.13;;;5.59;100.00
692;BME280;70475;50.084;8.576;2024-02-23T03:47:26;98639.25;;;5.55;100.00
692;BME280;70475;50.084;8.576;2024-02-23T03:49:54;98636.00;;;5.46;100.00
692;BME280;70475;50.084;8.576;2024-02-23T03:52:23;98634.34;;;5.39;100.00
692;BME280;70475;50.084;8.576;2024-02-23T03:54:51;98632.31;;;5.28;100.00
692;BME280;70475;50.084;8.576;2024-02-23T03:57:20;98638.53;;;5.14;100.00
692;BME280;70475;50.084;8.576;2024-02-23T03:59:54;98634.69;;;5.10;100.00
692;BME280;70475;50.084;8.576;2024-02-23T04:02:22;98631.22;;;5.03;100.00
692;BME280;70475;50.084;8.576;2024-02-23T04:04:50;98636.50;;;5.09;100.00
692;BME280;70475;50.084;8.576;2024-02-23T04:07:17;98645.19;;;4.97;100.00
692;BME280;70475;50.084;8.576;2024-02-23T04:09:47;98648.63;;;4.97;100.00
692;BME280;70475;50.084;8.576;2024-02-23T04:12:18;98643.38;;;5.04;100.00
692;BME280;70475;50.084;8.576;2024-02-23T04:14:46;98645.63;;;5.07;100.00
692;BME280;70475;50.084;8.576;2024-02-23T04:17:14;98653.34;;;5.15;100.00
692;BME280;70475;50.084;8.576;2024-02-23T04:19:41;98651.78;;;5.20;100.00
692;BME280;70475;50.084;8.576;2024-02-23T04:22:09;98651.56;;;5.22;100.00
692;BME280;70475;50.084;8.576;2024-02-23T04:24:38;98656.22;;;5.20;100.00
692;BME280;70475;50.084;8.576;2024-02-23T04:27:07;98658.47;;;5.23;100.00
692;BME280;70475;50.084;8.576;2024-02-23T04:29:35;98654.81;;;5.17;100.00
692;BME280;70475;50.084;8.576;2024-02-23T04:32:03;98663.75;;;5.23;100.00
692;BME280;70475;50.084;8.576;2024-02-23T04:34:31;98666.97;;;5.18;100.00
692;BME280;70475;50.084;8.576;2024-02-23T04:36:59;98673.06;;;5.19;100.00
692;BME280;70475;50.084;8.576;2024-02-23T04:39:26;98664.13;;;5.20;100.00
692;BME280;70475;50.084;8.576;2024-02-23T04:41:54;98676.31;;;5.21;100.00
692;BME280;70475;50.084;8.576;2024-02-23T04:44:23;98676.91;;;5.16;100.00
692;BME280;70475;50.084;8.576;2024-02-23T04:46:50;98677.53;;;5.18;100.00
692;BME280;70475;50.084;8.576;2024-02-23T04:49:18;98681.19;;;5.24;100.00
692;BME280;70475;50.084;8.576;2024-02-23T04:51:45;98681.03;;;5.32;100.00
692;BME280;70475;50.084;8.576;2024-02-23T04:54:13;98679.97;;;5.13;100.00
692;BME280;70475;50.084;8.576;2024-02-23T04:56:40;98684.81;;;5.16;100.00
692;BME280;70475;50.084;8.576;2024-02-23T04:59:08;98688.84;;;5.06;100.00
692;BME280;70475;50.084;8.576;2024-02-23T05:01:37;98683.09;;;4.96;100.00
692;BME280;70475;50.084;8.576;2024-02-23T05:04:05;98689.59;;;4.93;100.00
692;BME280;70475;50.084;8.576;2024-02-23T05:06:32;98694.03;;;4.86;100.00
692;BME280;70475;50.084;8.576;2024-02-23T05:09:00;98688.31;;;4.83;100.00
692;BME280;70475;50.084;8.576;2024-02-23T05:11:28;98690.75;;;4.84;100.00
692;BME280;70475;50.084;8.576;2024-02-23T05:13:55;98689.97;;;4.84;100.00
692;BME280;70475;50.084;8.576;2024-02-23T05:16:23;98683.63;;;4.78;100.00
692;BME280;70475;50.084;8.576;2024-02-23T05:18:52;98680.59;;;4.75;100.00
692;BME280;70475;50.084;8.576;2024-02-23T05:21:19;98683.75;;;4.64;100.00
692;BME280;70475;50.084;8.576;2024-02-23T05:23:47;98681.25;;;4.49;100.00
692;BME280;70475;50.084;8.576;2024-02-23T05:26:14;98681.63;;;4.46;100.00
692;BME280;70475;50.084;8.576;2024-02-23T05:28:42;98683.44;;;4.46;100.00
692;BME280;70475;50.084;8.576;2024-02-23T05:31:09;98680.78;;;4.39;100.00
692;BME280;70475;50.084;8.576;2024-02-23T05:33:37;98678.13;;;4.39;100.00
692;BME280;70475;50.084;8.576;2024-02-23T05:36:07;98673.91;;;4.45;100.00
692;BME280;70475;50.084;8.576;2024-02-23T05:38:35;98669.00;;;4.35;100.00
692;BME280;70475;50.084;8.576;2024-02-23T05:41:03;98668.13;;;4.28;100.00
692;BME280;70475;50.084;8.576;2024-02-23T05:43:31;98664.69;;;4.28;100.00
692;BME280;70475;50.084;8.576;2024-02-23T05:45:59;98663.66;;;4.28;100.00
692;BME280;70475;50.084;8.576;2024-02-23T05:48:26;98663.88;;;4.27;100.00
692;BME280;70475;50.084;8.576;2024-02-23T05:50:54;98656.72;;;4.21;100.00
692;BME280;70475;50.084;8.576;2024-02-23T05:53:23;98654.28;;;4.19;100.00
692;BME280;70475;50.084;8.576;2024-02-23T05:55:51;98653.53;;;4.25;100.00
692;BME280;70475;50.084;8.576;2024-02-23T05:58:18;98667.47;;;4.19;100.00
692;BME280;70475;50.084;8.576;2024-02-23T06:00:47;98664.91;;;4.32;100.00
692;BME280;70475;50.084;8.576;2024-02-23T06:03:16;98664.50;;;4.29;100.00
692;BME280;70475;50.084;8.576;2024-02-23T06:05:44;98671.09;;;4.18;100.00
692;BME280;70475;50.084;8.576;2024-02-23T06:08:12;98669.72;;;4.22;100.00
692;BME280;70475;50.084;8.576;2024-02-23T06:10:41;98679.94;;;4.32;100.00
692;BME280;70475;50.084;8.576;2024-02-23T06:13:09;98685.59;;;4.36;100.00
692;BME280;70475;50.084;8.576;2024-02-23T06:15:37;98685.97;;;4.32;100.00
692;BME280;70475;50.084;8.576;2024-02-23T06:18:05;98683.34;;;4.32;100.00
692;BME280;70475;50.084;8.576;2024-02-23T06:20:33;98687.22;;;4.37;100.00
692;BME280;70475;50.084;8.576;2024-02-23T06:23:00;98698.19;;;4.34;100.00
692;BME280;70475;50.084;8.576;2024-02-23T06:25:28;98705.34;;;4.46;100.00
692;BME280;70475;50.084;8.576;2024-02-23T06:27:57;98703.44;;;4.34;100.00
692;BME280;70475;50.084;8.576;2024-02-23T06:30:24;98712.97;;;4.35;100.00
692;BME280;70475;50.084;8.576;2024-02-23T06:32:52;98718.06;;;4.43;100.00
692;BME280;70475;50.084;8.576;2024-02-23T06:35:20;98720.19;;;4.54;100.00
692;BME280;70475;50.084;8.576;2024-02-23T06:37:48;98726.41;;;4.74;100.00
692;BME280;70475;50.084;8.576;2024-02-23T06:40:16;98717.53;;;4.81;100.00
692;BME280;70475;50.084;8.576;2024-02-23T06:42:44;98733.16;;;4.83;100.00
692;BME280;70475;50.084;8.576;2024-02-23T06:45:13;98737.88;;;4.94;100.00
692;BME280;70475;50.084;8.576;2024-02-23T06:47:41;98739.94;;;4.98;100.00
692;BME280;70475;50.084;8.576;2024-02-23T06:50:09;98738.97;;;5.06;100.00
692;BME280;70475;50.084;8.576;2024-02-23T06:52:37;98728.63;;;5.11;100.00
692;BME280;70475;50.084;8.576;2024-02-23T06:55:05;98739.63;;;5.14;100.00
692;BME280;70475;50.084;8.576;2024-02-23T06:57:33;98738.59;;;5.15;100.00
692;BME280;70475;50.084;8.576;2024-02-23T07:00:00;98738.44;;;5.23;100.00
692;BME280;70475;50.084;8.576;2024-02-23T07:02:29;98740.91;;;5.31;100.00
692;BME280;70475;50.084;8.576;2024-02-23T07:05:00;98737.06;;;5.34;100.00
692;BME280;70475;50.084;8.576;2024-02-23T07:07:30;98746.59;;;5.35;100.00
692;BME280;70475;50.084;8.576;2024-02-23T07:09:59;98748.03;;;5.37;100.00
692;BME280;70475;50.084;8.576;2024-02-23T07:12:27;98749.09;;;5.49;100.00
692;BME280;70475;50.084;8.576;2024-02-23T07:14:55;98756.44;;;5.54;100.00
692;BME280;70475;50.084;8.576;2024-02-23T07:17:23;98751.38;;;5.65;100.00
692;BME280;70475;50.084;8.576;2024-02-23T07:19:52;98758.91;;;5.62;100.00
692;BME280;70475;50.084;8.576;2024-02-23T07:22:20;98757.28;;;5.67;100.00
692;BME280;70475;50.084;8.576;2024-02-23T07:24:47;98757.69;;;5.71;100.00
692;BME280;70475;50.084;8.576;2024-02-23T07:27:15;98757.28;;;5.74;100.00
692;BME280;70475;50.084;8.576;2024-02-23T07:29:43;98755.72;;;5.86;100.00
692;BME280;70475;50.084;8.576;2024-02-23T07:32:11;98748.03;;;6.04;100.00
692;BME280;70475;50.084;8.576;2024-02-23T07:34:39;98754.34;;;6.22;100.00
692;BME280;70475;50.084;8.576;2024-02-23T07:37:08;98747.44;;;6.34;100.00
692;BME280;70475;50.084;8.576;2024-02-23T07:39:36;98746.25;;;6.37;100.00
692;BME280;70475;50.084;8.576;2024-02-23T07:42:04;98754.56;;;6.54;100.00
692;BME280;70475;50.084;8.576;2024-02-23T07:44:32;98755.78;;;6.45;100.00
692;BME280;70475;50.084;8.576;2024-02-23T07:47:00;98756.38;;;6.27;100.00
692;BME280;70475;50.084;8.576;2024-02-23T07:49:27;98755.41;;;6.28;100.00
692;BME280;70475;50.084;8.576;2024-02-23T07:51:55;98756.78;;;6.24;100.00
692;BME280;70475;50.084;8.576;2024-02-23T07:54:23;98758.22;;;6.13;100.00
692;BME280;70475;50.084;8.576;2024-02-23T07:56:51;98768.38;;;6.23;100.00
692;BME280;70475;50.084;8.576;2024-02-23T07:59:19;98772.66;;;6.24;100.00
692;BME280;70475;50.084;8.576;2024-02-23T08:01:46;98780.00;;;6.35;100.00
692;BME280;70475;50.084;8.576;2024-02-23T08:04:14;98782.66;;;6.42;100.00
692;BME280;70475;50.084;8.576;2024-02-23T08:06:42;98784.28;;;6.43;100.00
692;BME280;70475;50.084;8.576;2024-02-23T08:09:10;98788.13;;;6.60;100.00
692;BME280;70475;50.084;8.576;2024-02-23T08:11:38;98789.94;;;6.46;100.00
692;BME280;70475;50.084;8.576;2024-02-23T08:14:06;98794.84;;;6.43;100.00
692;BME280;70475;50.084;8.576;2024-02-23T08:16:34;98790.38;;;6.50;100.00
692;BME280;70475;50.084;8.576;2024-02-23T08:19:02;98787.94;;;6.48;100.00
692;BME280;70475;50.084;8.576;2024-02-23T08:21:30;98790.78;;;6.66;100.00
692;BME280;70475;50.084;8.576;2024-02-23T08:23:57;98797.28;;;6.44;100.00
692;BME280;70475;50.084;8.576;2024-02-23T08:26:25;98787.50;;;6.45;100.00
692;BME280;70475;50.084;8.576;2024-02-23T08:28:54;98795.03;;;6.67;100.00
692;BME280;70475;50.084;8.576;2024-02-23T08:31:24;98794.03;;;6.75;100.00
692;BME280;70475;50.084;8.576;2024-02-23T08:33:55;98795.25;;;6.40;100.00
692;BME280;70475;50.084;8.576;2024-02-23T08:36:22;98785.28;;;6.55;100.00
692;BME280;70475;50.084;8.576;2024-02-23T08:38:50;98798.72;;;6.66;100.00
692;BME280;70475;50.084;8.576;2024-02-23T08:41:18;98799.31;;;6.55;100.00
692;BME280;70475;50.084;8.576;2024-02-23T08:43:45;98799.53;;;6.60;100.00
692;BME280;70475;50.084;8.576;2024-02-23T08:46:14;98811.50;;;6.43;100.00
692;BME280;70475;50.084;8.576;2024-02-23T08:48:42;98800.34;;;6.61;100.00
692;BME280;70475;50.084;8.576;2024-02-23T08:51:10;98800.13;;;6.56;100.00
692;BME280;70475;50.084;8.576;2024-02-23T08:53:37;98797.09;;;6.59;100.00
692;BME280;70475;50.084;8.576;2024-02-23T08:56:06;98796.44;;;6.89;100.00
692;BME280;70475;50.084;8.576;2024-02-23T08:58:34;98797.88;;;6.85;100.00
692;BME280;70475;50.084;8.576;2024-02-23T09:01:01;98812.31;;;6.89;100.00
692;BME280;70475;50.084;8.576;2024-02-23T09:03:32;98803.75;;;7.07;100.00
692;BME280;70475;50.084;8.576;2024-02-23T09:06:00;98802.59;;;6.77;100.00
692;BME280;70475;50.084;8.576;2024-02-23T09:08:28;98812.97;;;6.78;100.00
692;BME280;70475;50.084;8.576;2024-02-23T09:10:56;98807.88;;;6.77;100.00
692;BME280;70475;50.084;8.576;2024-02-23T09:13:24;98816.63;;;6.84;100.00
692;BME280;70475;50.084;8.576;2024-02-23T09:15:53;98806.63;;;6.79;100.00
692;BME280;70475;50.084;8.576;2024-02-23T09:18:20;98816.63;;;6.58;100.00
692;BME280;70475;50.084;8.576;2024-02-23T09:20:49;98818.84;;;6.54;100.00
692;BME280;70475;50.084;8.576;2024-02-23T09:23:17;98815.59;;;6.78;100.00
692;BME280;70475;50.084;8.576;2024-02-23T09:25:45;98818.03;;;6.60;100.00
692;BME280;70475;50.084;8.576;2024-02-23T09:28:12;98808.69;;;6.71;100.00
692;BME280;70475;50.084;8.576;2024-02-23T09:30:40;98804.81;;;6.60;100.00
692;BME280;70475;50.084;8.576;2024-02-23T09:33:07;98794.00;;;6.68;100.00
692;BME280;70475;50.084;8.576;2024-02-23T09:35:35;98797.69;;;6.74;100.00
692;BME280;70475;50.084;8.576;2024-02-23T09:38:04;98803.78;;;6.81;100.00
692;BME280;70475;50.084;8.576;2024-02-23T09:40:32;98798.28;;;7.02;100.00
692;BME280;70475;50.084;8.576;2024-02-23T09:43:00;98795.19;;;7.18;100.00
692;BME280;70475;50.084;8.576;2024-02-23T09:45:27;98793.13;;;7.33;100.00
692;BME280;70475;50.084;8.576;2024-02-23T09:47:57;98787.44;;;7.73;100.00
692;BME280;70475;50.084;8.576;2024-02-23T09:50:25;98781.38;;;7.60;100.00
692;BME280;70475;50.084;8.576;2024-02-23T09:52:56;98784.81;;;7.73;100.00
692;BME280;70475;50.084;8.576;2024-02-23T09:55:27;98783.75;;;7.74;100.00
692;BME280;70475;50.084;8.576;2024-02-23T09:57:55;98797.63;;;7.76;100.00
692;BME280;70475;50.084;8.576;2024-02-23T10:00:25;98782.47;;;7.90;100.00
692;BME280;70475;50.084;8.576;2024-02-23T10:02:53;98790.09;;;7.73;100.00
692;BME280;70475;50.084;8.576;2024-02-23T10:05:23;98799.81;;;7.35;100.00
692;BME280;70475;50.084;8.576;2024-02-23T10:07:50;98800.19;;;7.45;100.00
692;BME280;70475;50.084;8.576;2024-02-23T10:10:24;98794.25;;;7.56;100.00
692;BME280;70475;50.084;8.576;2024-02-23T10:12:54;98782.06;;;7.42;100.00
692;BME280;70475;50.084;8.576;2024-02-23T10:15:22;98786.38;;;7.87;100.00
692;BME280;70475;50.084;8.576;2024-02-23T10:17:50;98787.06;;;8.07;100.00
692;BME280;70475;50.084;8.576;2024-02-23T10:20:17;98791.09;;;8.16;100.00
692;BME280;70475;50.084;8.576;2024-02-23T10:22:45;98790.16;;;8.35;100.00
692;BME280;70475;50.084;8.576;2024-02-23T10:25:12;98796.72;;;8.33;100.00
692;BME280;70475;50.084;8.576;2024-02-23T10:27:40;98790.66;;;8.19;100.00
692;BME280;70475;50.084;8.576;2024-02-23T10:30:10;98784.41;;;8.07;100.00
692;BME280;70475;50.084;8.576;2024-02-23T10:32:38;98777.41;;;7.82;100.00
692;BME280;70475;50.084;8.576;2024-02-23T10:35:09;98791.41;;;7.58;100.00
692;BME280;70475;50.084;8.576;2024-02-23T10:37:37;98787.50;;;7.98;100.00
692;BME280;70475;50.084;8.576;2024-02-23T10:40:06;98775.19;;;7.79;100.00
692;BME280;70475;50.084;8.576;2024-02-23T10:42:37;98775.28;;;8.03;100.00
692;BME280;70475;50.084;8.576;2024-02-23T10:45:06;98774.69;;;8.32;100.00
692;BME280;70475;50.084;8.576;2024-02-23T10:47:36;98770.41;;;8.00;100.00
692;BME280;70475;50.084;8.576;2024-02-23T10:50:06;98780.88;;;8.20;100.00
692;BME280;70475;50.084;8.576;2024-02-23T10:52:35;98778.94;;;8.02;100.00
692;BME280;70475;50.084;8.576;2024-02-23T10:55:04;98783.13;;;8.16;100.00
692;BME280;70475;50.084;8.576;2024-02-23T10:57:34;98762.66;;;8.79;100.00
692;BME280;70475;50.084;8.576;2024-02-23T11:00:03;98766.69;;;8.64;100.00
692;BME280;70475;50.084;8.576;2024-02-23T11:02:36;98772.91;;;8.26;100.00
692;BME280;70475;50.084;8.576;2024-02-23T11:05:07;98769.59;;;8.31;100.00
692;BME280;70475;50.084;8.576;2024-02-23T11:07:39;98773.28;;;7.92;100.00
692;BME280;70475;50.084;8.576;2024-02-23T11:10:08;98778.66;;;7.79;100.00
692;BME280;70475;50.084;8.576;2024-02-23T11:12:36;98764.56;;;7.85;100.00
692;BME280;70475;50.084;8.576;2024-02-23T11:15:05;98773.16;;;7.81;100.00
692;BME280;70475;50.084;8.576;2024-02-23T11:17:35;98768.81;;;7.86;100.00
692;BME280;70475;50.084;8.576;2024-02-23T11:20:05;98761.38;;;8.08;100.00
692;BME280;70475;50.084;8.576;2024-02-23T11:22:35;98748.81;;;8.21;100.00
692;BME280;70475;50.084;8.576;2024-02-23T11:25:06;98754.50;;;8.56;100.00
692;BME280;70475;50.084;8.576;2024-02-23T11:27:36;98749.53;;;8.42;100.00
692;BME280;70475;50.084;8.576;2024-02-23T11:30:05;98752.50;;;8.52;100.00
692;BME280;70475;50.084;8.576;2024-02-23T11:32:37;98755.56;;;8.73;100.00
692;BME280;70475;50.084;8.576;2024-02-23T11:35:10;98766.19;;;8.49;100.00
692;BME280;70475;50.084;8.576;2024-02-23T11:37:48;98770.53;;;8.92;100.00
692;BME280;70475;50.084;8.576;2024-02-23T11:40:18;98763.09;;;8.76;100.00
692;BME280;70475;50.084;8.576;2024-02-23T11:42:46;98762.25;;;8.58;100.00
692;BME280;70475;50.084;8.576;2024-02-23T11:45:15;98768.69;;;9.11;100.00
692;BME280;70475;50.084;8.576;2024-02-23T11:47:42;98767.22;;;8.97;100.00
692;BME280;70475;50.084;8.576;2024-02-23T11:50:13;98764.91;;;8.58;100.00
692;BME280;70475;50.084;8.576;2024-02-23T11:52:42;98761.28;;;8.52;100.00
692;BME280;70475;50.084;8.576;2024-02-23T11:55:09;98764.97;;;8.76;100.00
692;BME280;70475;50.084;8.576;2024-02-23T11:57:39;98763.00;;;8.65;100.00
692;BME280;70475;50.084;8.576;2024-02-23T12:00:14;98757.75;;;8.33;100.00
692;BME280;70475;50.084;8.576;2024-02-23T12:02:43;98763.00;;;8.65;100.00
692;BME280;70475;50.084;8.576;2024-02-23T12:05:12;98759.22;;;8.79;100.00
692;BME280;70475;50.084;8.576;2024-02-23T12:07:40;98766.84;;;9.11;100.00
692;BME280;70475;50.084;8.576;2024-02-23T12:10:12;98762.69;;;8.55;100.00
692;BME280;70475;50.084;8.576;2024-02-23T12:12:40;98758.81;;;9.18;100.00
692;BME280;70475;50.084;8.576;2024-02-23T12:15:08;98754.34;;;8.76;100.00
692;BME280;70475;50.084;8.576;2024-02-23T12:17:49;98758.66;;;9.31;100.00
692;BME280;70475;50.084;8.576;2024-02-23T12:20:18;98758.44;;;8.96;100.00
692;BME280;70475;50.084;8.576;2024-02-23T12:22:47;98761.91;;;9.15;100.00
692;BME280;70475;50.084;8.576;2024-02-23T12:25:15;98755.44;;;9.47;100.00
692;BME280;70475;50.084;8.576;2024-02-23T12:27:43;98746.25;;;9.61;100.00
692;BME280;70475;50.084;8.576;2024-02-23T12:30:13;98758.81;;;9.36;100.00
692;BME280;70475;50.084;8.576;2024-02-23T12:32:41;98766.78;;;9.36;100.00
692;BME280;70475;50.084;8.576;2024-02-23T12:35:10;98759.53;;;9.25;100.00
692;BME280;70475;50.084;8.576;2024-02-23T12:37:39;98762.50;;;9.17;100.00
692;BME280;70475;50.084;8.576;2024-02-23T12:40:16;98771.22;;;9.42;100.00
692;BME280;70475;50.084;8.576;2024-02-23T12:42:45;98767.97;;;9.22;100.00
692;BME280;70475;50.084;8.576;2024-02-23T12:45:15;98759.03;;;9.16;100.00
692;BME280;70475;50.084;8.576;2024-02-23T12:47:42;98759.09;;;8.92;100.00
692;BME280;70475;50.084;8.576;2024-02-23T12:50:13;98760.25;;;8.96;100.00
692;BME280;70475;50.084;8.576;2024-02-23T12:52:42;98753.56;;;8.93;100.00
692;BME280;70475;50.084;8.576;2024-02-23T12:55:11;98754.91;;;9.02;100.00
692;BME280;70475;50.084;8.576;2024-02-23T12:57:39;98756.22;;;8.93;100.00
692;BME280;70475;50.084;8.576;2024-02-23T13:00:12;98761.66;;;8.80;100.00
692;BME280;70475;50.084;8.576;2024-02-23T13:02:43;98756.38;;;8.74;100.00
692;BME280;70475;50.084;8.576;2024-02-23T13:05:14;98759.34;;;8.84;100.00
692;BME280;70475;50.084;8.576;2024-02-23T13:07:43;98754.03;;;8.84;100.00
692;BME280;70475;50.084;8.576;2024-02-23T13:10:12;98749.94;;;8.88;100.00
692;BME280;70475;50.084;8.576;2024-02-23T13:12:40;98753.66;;;9.41;100.00
692;BME280;70475;50.084;8.576;2024-02-23T13:15:08;98748.19;;;9.36;100.00
692;BME280;70475;50.084;8.576;2024-02-23T13:17:36;98744.03;;;9.58;100.00
692;BME280;70475;50.084;8.576;2024-02-23T13:20:04;98747.28;;;9.60;100.00
692;BME280;70475;50.084;8.576;2024-02-23T13:22:37;98752.88;;;9.70;100.00
692;BME280;70475;50.084;8.576;2024-02-23T13:25:13;98745.41;;;9.60;100.00
692;BME280;70475;50.084;8.576;2024-02-23T13:27:41;98744.72;;;9.17;100.00
692;BME280;70475;50.084;8.576;2024-02-23T13:30:09;98743.91;;;9.17;100.00